CST,Max TemperatureF,Mean TemperatureF,Min TemperatureF,Max Dew PointF,MeanDew PointF,Min DewpointF,Max Humidity, Mean Humidity, Min Humidity, Max Sea Level PressureIn, Mean Sea Level PressureIn, Min Sea Level PressureIn, Max VisibilityMiles, Mean VisibilityMiles, Min VisibilityMiles, Max Wind SpeedMPH, Mean Wind SpeedMPH, Max Gust SpeedMPH,PrecipitationIn, CloudCover, Events, WindDirDegrees
2012-11-1,46,36,26,37,27,21,87,70,52,30.09,30.05,29.98,10,10,7,21,15,26,0.00,2,,348
2012-11-2,37,30,24,28,25,21,93,77,65,30.15,30.11,30.06,10,10,10,8,5,,0.00,5,,88
2012-11-3,44,38,33,36,31,28,93,77,57,30.21,30.17,30.15,10,9,5,8,2,,0.01,6,Rain,246
2012-11-4,39,37,35,36,33,30,93,88,81,30.20,30.16,30.11,10,8,2,8,4,,0.00,3,,344
2012-11-5,39,37,35,36,34,32,93,87,81,30.18,30.09,29.83,10,9,4,13,7,16,0.01,3,Rain,325
2012-11-6,44,40,37,37,34,30,93,73,57,30.05,29.91,29.79,10,10,7,24,14,33,0.02,7,Rain,310
2012-11-7,50,38,26,34,30,23,93,74,47,30.11,30.03,29.89,10,10,10,16,7,20,0.00,1,,208
2012-11-8,53,43,33,37,33,30,87,75,47,30.04,29.93,29.83,10,10,10,21,12,26,0.00,2,,25
2012-11-9,48,42,35,37,36,34,93,79,66,30.04,29.94,29.80,10,10,10,20,12,26,0.00,2,,67
2012-11-10,59,47,35,52,43,32,93,83,72,29.79,29.55,29.43,10,6,2,24,14,29,0.15,2,Rain-Thunderstorm,155
2012-11-11,35,26,17,32,16,10,87,70,55,29.96,29.85,29.62,10,10,10,24,18,31,0.00,5,Snow,287
2012-11-12,28,22,15,16,13,10,86,69,54,30.27,30.10,29.95,10,9,4,23,16,31,0.00,3,Snow,282
2012-11-13,48,32,15,27,19,10,86,64,27,30.27,30.23,30.19,10,10,10,13,6,,0.00,2,,201
2012-11-14,53,38,23,32,26,19,86,65,38,30.23,30.16,30.07,10,10,10,12,4,,0.00,2,,184
2012-11-15,39,27,15,30,22,12,93,71,44,30.50,30.31,30.07,10,10,10,21,8,26,0.00,0,,321
2012-11-16,46,29,12,30,17,10,92,65,27,30.50,30.34,30.15,10,10,10,18,6,22,0.00,0,,156
2012-11-17,59,49,39,36,33,30,81,60,39,30.15,30.08,30.02,10,10,10,23,15,29,0.00,0,,176
2012-11-18,62,46,30,36,33,28,93,64,34,30.02,29.98,29.94,10,10,10,17,9,20,0.00,0,,159
2012-11-19,53,40,28,37,33,27,93,73,54,30.14,30.02,29.93,10,10,7,14,8,18,0.00,0,,326
2012-11-20,59,39,19,34,26,18,100,66,28,30.18,30.08,29.90,10,8,0,17,7,,0.00,1,Fog,189
2012-11-21,64,48,33,36,32,28,81,53,30,29.91,29.78,29.57,10,10,10,18,10,21,0.00,0,,191
2012-11-22,55,40,23,34,28,16,93,69,41,30.20,29.85,29.56,10,9,0,29,17,41,0.08,5,Snow,303
2012-11-23,24,16,8,16,11,5,92,73,54,30.46,30.39,30.21,10,10,4,29,20,41,0.00,4,Snow,324
2012-11-24,37,22,8,21,15,5,92,70,41,30.36,30.02,29.80,10,10,10,20,6,20,0.00,3,,186
2012-11-25,35,27,17,27,20,9,86,71,56,30.26,30.03,29.85,10,10,10,22,12,26,0.00,7,,334
2012-11-26,26,16,6,9,7,3,85,69,43,30.46,30.37,30.27,10,10,10,18,10,26,0.00,1,,302
2012-11-27,37,24,12,23,17,9,93,69,52,30.28,30.17,30.08,10,10,10,14,9,18,0.00,0,,272
2012-11-28,42,27,12,27,20,10,93,74,42,30.31,30.18,30.02,10,10,7,15,5,20,0.00,2,,184
2012-11-29,39,28,17,25,22,16,100,80,56,30.09,30.05,29.99,10,9,0,16,6,,0.00,1,Fog,32
2012-11-30,35,25,15,30,24,14,93,85,75,30.16,30.06,29.90,10,6,3,18,7,21,0.00,0,,115